sensor_id;sensor_type;location;lat;lon;timestamp;temperature;humidity
52073;DHT22;38074;51.232;6.826;2022-12-07T00:01:31;22.80;41.50
52073;DHT22;38074;51.232;6.826;2022-12-07T00:08:47;22.80;41.50
52073;DHT22;38074;51.232;6.826;2022-12-07T00:16:15;22.80;41.50
52073;DHT22;38074;51.232;6.826;2022-12-07T00:23:32;22.80;41.40
52073;DHT22;38074;51.232;6.826;2022-12-07T00:30:48;22.80;41.40
52073;DHT22;38074;51.232;6.826;2022-12-07T00:38:03;22.80;41.40
52073;DHT22;38074;51.232;6.826;2022-12-07T00:45:19;22.80;41.30
52073;DHT22;38074;51.232;6.826;2022-12-07T00:52:34;22.80;41.30
52073;DHT22;38074;51.232;6.826;2022-12-07T00:59:50;22.80;41.20
52073;DHT22;38074;51.232;6.826;2022-12-07T01:07:05;22.70;41.20
52073;DHT22;38074;51.232;6.826;2022-12-07T01:14:21;22.70;41.10
52073;DHT22;38074;51.232;6.826;2022-12-07T01:21:36;22.80;41.20
52073;DHT22;38074;51.232;6.826;2022-12-07T01:28:53;22.70;41.10
52073;DHT22;38074;51.232;6.826;2022-12-07T01:36:26;22.70;41.00
52073;DHT22;38074;51.232;6.826;2022-12-07T01:44:09;22.80;41.00
52073;DHT22;38074;51.232;6.826;2022-12-07T01:51:26;22.70;40.90
52073;DHT22;38074;51.232;6.826;2022-12-07T01:58:43;22.70;40.90
52073;DHT22;38074;51.232;6.826;2022-12-07T02:05:59;22.80;41.00
52073;DHT22;38074;51.232;6.826;2022-12-07T02:13:24;22.80;40.90
52073;DHT22;38074;51.232;6.826;2022-12-07T02:21:03;22.70;40.90
52073;DHT22;38074;51.232;6.826;2022-12-07T02:28:35;22.70;40.70
52073;DHT22;38074;51.232;6.826;2022-12-07T02:36:06;22.70;40.80
52073;DHT22;38074;51.232;6.826;2022-12-07T02:43:26;22.70;40.70
52073;DHT22;38074;51.232;6.826;2022-12-07T02:50:51;22.70;40.70
52073;DHT22;38074;51.232;6.826;2022-12-07T02:58:30;22.70;40.70
52073;DHT22;38074;51.232;6.826;2022-12-07T03:06:16;22.70;40.60
52073;DHT22;38074;51.232;6.826;2022-12-07T03:20:53;22.70;40.60
52073;DHT22;38074;51.232;6.826;2022-12-07T03:28:11;22.80;40.60
52073;DHT22;38074;51.232;6.826;2022-12-07T03:35:48;22.70;40.60
52073;DHT22;38074;51.232;6.826;2022-12-07T03:43:06;22.70;40.50
52073;DHT22;38074;51.232;6.826;2022-12-07T03:50:35;22.70;40.50
52073;DHT22;38074;51.232;6.826;2022-12-07T03:57:55;22.70;40.40
52073;DHT22;38074;51.232;6.826;2022-12-07T04:05:12;22.70;40.40
52073;DHT22;38074;51.232;6.826;2022-12-07T04:12:27;22.80;40.50
52073;DHT22;38074;51.232;6.826;2022-12-07T04:19:43;22.70;40.40
52073;DHT22;38074;51.232;6.826;2022-12-07T04:26:58;22.70;40.40
52073;DHT22;38074;51.232;6.826;2022-12-07T04:34:14;22.70;40.40
52073;DHT22;38074;51.232;6.826;2022-12-07T04:41:30;22.70;40.40
52073;DHT22;38074;51.232;6.826;2022-12-07T04:48:47;22.70;40.30
52073;DHT22;38074;51.232;6.826;2022-12-07T04:56:03;22.70;40.30
52073;DHT22;38074;51.232;6.826;2022-12-07T05:03:18;22.70;40.20
52073;DHT22;38074;51.232;6.826;2022-12-07T05:10:34;22.70;40.20
52073;DHT22;38074;51.232;6.826;2022-12-07T05:17:49;22.70;40.30
52073;DHT22;38074;51.232;6.826;2022-12-07T05:25:05;22.70;40.20
52073;DHT22;38074;51.232;6.826;2022-12-07T05:32:20;22.70;40.10
52073;DHT22;38074;51.232;6.826;2022-12-07T05:39:37;22.70;40.10
52073;DHT22;38074;51.232;6.826;2022-12-07T05:46:56;22.70;40.10
52073;DHT22;38074;51.232;6.826;2022-12-07T05:54:11;22.70;40.10
52073;DHT22;38074;51.232;6.826;2022-12-07T06:01:27;22.70;40.10
52073;DHT22;38074;51.232;6.826;2022-12-07T06:08:42;22.70;40.00
52073;DHT22;38074;51.232;6.826;2022-12-07T06:15:58;22.70;40.10
52073;DHT22;38074;51.232;6.826;2022-12-07T06:23:14;22.70;40.40
52073;DHT22;38074;51.232;6.826;2022-12-07T06:30:29;22.80;40.60
52073;DHT22;38074;51.232;6.826;2022-12-07T06:37:44;22.90;41.00
52073;DHT22;38074;51.232;6.826;2022-12-07T06:45:00;22.90;41.20
52073;DHT22;38074;51.232;6.826;2022-12-07T06:52:15;22.80;41.00
52073;DHT22;38074;51.232;6.826;2022-12-07T06:59:31;22.90;41.30
52073;DHT22;38074;51.232;6.826;2022-12-07T07:06:46;23.00;41.40
52073;DHT22;38074;51.232;6.826;2022-12-07T07:14:02;23.10;41.50
52073;DHT22;38074;51.232;6.826;2022-12-07T07:21:18;23.20;41.60
52073;DHT22;38074;51.232;6.826;2022-12-07T07:28:33;23.20;41.70
52073;DHT22;38074;51.232;6.826;2022-12-07T07:35:49;23.30;41.80
52073;DHT22;38074;51.232;6.826;2022-12-07T07:43:04;23.30;42.00
52073;DHT22;38074;51.232;6.826;2022-12-07T07:50:21;23.30;42.00
52073;DHT22;38074;51.232;6.826;2022-12-07T07:57:38;23.30;42.10
52073;DHT22;38074;51.232;6.826;2022-12-07T08:04:55;23.30;42.20
52073;DHT22;38074;51.232;6.826;2022-12-07T08:12:10;23.30;42.20
52073;DHT22;38074;51.232;6.826;2022-12-07T08:19:26;23.40;42.40
52073;DHT22;38074;51.232;6.826;2022-12-07T08:26:42;23.30;42.40
52073;DHT22;38074;51.232;6.826;2022-12-07T08:33:57;23.20;42.40
52073;DHT22;38074;51.232;6.826;2022-12-07T08:41:13;23.20;42.40
52073;DHT22;38074;51.232;6.826;2022-12-07T08:48:28;23.10;42.40
52073;DHT22;38074;51.232;6.826;2022-12-07T08:55:46;23.00;42.30
52073;DHT22;38074;51.232;6.826;2022-12-07T09:03:01;23.00;42.30
52073;DHT22;38074;51.232;6.826;2022-12-07T09:10:18;23.00;42.30
52073;DHT22;38074;51.232;6.826;2022-12-07T09:17:34;23.00;42.30
52073;DHT22;38074;51.232;6.826;2022-12-07T09:24:51;23.00;42.30
52073;DHT22;38074;51.232;6.826;2022-12-07T09:32:06;23.00;42.10
52073;DHT22;38074;51.232;6.826;2022-12-07T09:39:21;23.00;42.20
52073;DHT22;38074;51.232;6.826;2022-12-07T09:46:40;23.00;42.20
52073;DHT22;38074;51.232;6.826;2022-12-07T09:53:57;23.00;42.90
52073;DHT22;38074;51.232;6.826;2022-12-07T10:01:14;23.00;42.30
52073;DHT22;38074;51.232;6.826;2022-12-07T10:08:30;23.00;42.20
52073;DHT22;38074;51.232;6.826;2022-12-07T10:15:49;23.00;42.40
52073;DHT22;38074;51.232;6.826;2022-12-07T10:23:14;23.10;42.40
52073;DHT22;38074;51.232;6.826;2022-12-07T10:30:31;23.20;42.50
52073;DHT22;38074;51.232;6.826;2022-12-07T10:37:49;23.20;42.40
52073;DHT22;38074;51.232;6.826;2022-12-07T10:45:16;23.20;42.40
52073;DHT22;38074;51.232;6.826;2022-12-07T10:52:58;23.10;42.30
52073;DHT22;38074;51.232;6.826;2022-12-07T11:00:24;23.00;42.30
52073;DHT22;38074;51.232;6.826;2022-12-07T11:07:59;23.20;42.40
52073;DHT22;38074;51.232;6.826;2022-12-07T11:22:40;23.30;42.30
52073;DHT22;38074;51.232;6.826;2022-12-07T11:30:13;23.30;42.30
52073;DHT22;38074;51.232;6.826;2022-12-07T11:37:33;23.40;42.30
52073;DHT22;38074;51.232;6.826;2022-12-07T11:44:56;23.40;42.30
52073;DHT22;38074;51.232;6.826;2022-12-07T11:52:22;23.40;42.30
52073;DHT22;38074;51.232;6.826;2022-12-07T11:59:45;23.50;42.30
52073;DHT22;38074;51.232;6.826;2022-12-07T12:07:06;23.50;42.30
52073;DHT22;38074;51.232;6.826;2022-12-07T12:21:57;23.50;42.40
52073;DHT22;38074;51.232;6.826;2022-12-07T12:29:36;23.40;42.40
52073;DHT22;38074;51.232;6.826;2022-12-07T12:36:52;23.30;42.30
52073;DHT22;38074;51.232;6.826;2022-12-07T12:51:37;23.20;42.30
52073;DHT22;38074;51.232;6.826;2022-12-07T12:59:18;23.30;42.60
52073;DHT22;38074;51.232;6.826;2022-12-07T13:06:37;23.20;42.60
52073;DHT22;38074;51.232;6.826;2022-12-07T13:21:47;23.20;43.00
52073;DHT22;38074;51.232;6.826;2022-12-07T13:29:14;23.20;43.00
52073;DHT22;38074;51.232;6.826;2022-12-07T13:36:36;23.20;43.10
52073;DHT22;38074;51.232;6.826;2022-12-07T13:43:59;23.30;43.30
52073;DHT22;38074;51.232;6.826;2022-12-07T13:51:24;23.20;43.20
52073;DHT22;38074;51.232;6.826;2022-12-07T13:58:40;23.20;43.20
52073;DHT22;38074;51.232;6.826;2022-12-07T14:20:44;23.40;43.40
52073;DHT22;38074;51.232;6.826;2022-12-07T14:28:00;23.30;43.20
52073;DHT22;38074;51.232;6.826;2022-12-07T14:35:17;23.20;42.80
52073;DHT22;38074;51.232;6.826;2022-12-07T14:42:34;23.20;42.50
52073;DHT22;38074;51.232;6.826;2022-12-07T14:49:50;23.20;42.20
52073;DHT22;38074;51.232;6.826;2022-12-07T14:57:08;23.20;42.00
52073;DHT22;38074;51.232;6.826;2022-12-07T15:04:24;23.20;41.80
52073;DHT22;38074;51.232;6.826;2022-12-07T15:11:40;23.20;41.80
52073;DHT22;38074;51.232;6.826;2022-12-07T15:18:55;23.20;41.70
52073;DHT22;38074;51.232;6.826;2022-12-07T15:26:11;23.20;41.50
52073;DHT22;38074;51.232;6.826;2022-12-07T15:33:26;23.10;41.30
52073;DHT22;38074;51.232;6.826;2022-12-07T15:40:42;23.20;41.30
52073;DHT22;38074;51.232;6.826;2022-12-07T15:48:01;23.10;41.20
52073;DHT22;38074;51.232;6.826;2022-12-07T15:55:17;23.10;41.10
52073;DHT22;38074;51.232;6.826;2022-12-07T16:02:32;23.10;41.00
52073;DHT22;38074;51.232;6.826;2022-12-07T16:09:48;23.10;41.00
52073;DHT22;38074;51.232;6.826;2022-12-07T16:17:05;23.10;41.00
52073;DHT22;38074;51.232;6.826;2022-12-07T16:24:22;23.10;40.90
52073;DHT22;38074;51.232;6.826;2022-12-07T16:31:37;23.00;40.70
52073;DHT22;38074;51.232;6.826;2022-12-07T16:38:53;23.10;40.80
52073;DHT22;38074;51.232;6.826;2022-12-07T16:46:09;23.00;40.60
52073;DHT22;38074;51.232;6.826;2022-12-07T16:53:25;23.00;40.70
52073;DHT22;38074;51.232;6.826;2022-12-07T17:00:41;23.00;40.60
52073;DHT22;38074;51.232;6.826;2022-12-07T17:07:57;23.00;40.70
52073;DHT22;38074;51.232;6.826;2022-12-07T17:15:13;23.00;40.60
52073;DHT22;38074;51.232;6.826;2022-12-07T17:22:31;23.00;40.60
52073;DHT22;38074;51.232;6.826;2022-12-07T17:29:47;23.00;40.50
52073;DHT22;38074;51.232;6.826;2022-12-07T17:37:02;23.00;40.50
52073;DHT22;38074;51.232;6.826;2022-12-07T17:44:19;23.00;40.60
52073;DHT22;38074;51.232;6.826;2022-12-07T17:51:36;23.00;40.50
52073;DHT22;38074;51.232;6.826;2022-12-07T17:59:11;22.90;40.40
52073;DHT22;38074;51.232;6.826;2022-12-07T18:06:26;22.90;40.40
52073;DHT22;38074;51.232;6.826;2022-12-07T18:13:42;22.90;40.40
52073;DHT22;38074;51.232;6.826;2022-12-07T18:20:57;22.90;40.40
52073;DHT22;38074;51.232;6.826;2022-12-07T18:28:16;22.90;40.40
52073;DHT22;38074;51.232;6.826;2022-12-07T18:35:32;22.90;40.30
52073;DHT22;38074;51.232;6.826;2022-12-07T18:42:48;22.90;40.30
52073;DHT22;38074;51.232;6.826;2022-12-07T18:50:04;22.90;40.90
52073;DHT22;38074;51.232;6.826;2022-12-07T18:57:20;22.90;40.20
52073;DHT22;38074;51.232;6.826;2022-12-07T19:04:35;22.90;40.20
52073;DHT22;38074;51.232;6.826;2022-12-07T19:11:51;22.90;40.30
52073;DHT22;38074;51.232;6.826;2022-12-07T19:19:06;22.90;40.20
52073;DHT22;38074;51.232;6.826;2022-12-07T19:26:22;22.90;40.20
52073;DHT22;38074;51.232;6.826;2022-12-07T19:33:38;22.90;40.20
52073;DHT22;38074;51.232;6.826;2022-12-07T19:40:54;22.90;40.10
52073;DHT22;38074;51.232;6.826;2022-12-07T19:48:09;22.90;40.10
52073;DHT22;38074;51.232;6.826;2022-12-07T19:55:25;22.90;40.00
52073;DHT22;38074;51.232;6.826;2022-12-07T20:02:40;22.90;40.10
52073;DHT22;38074;51.232;6.826;2022-12-07T20:09:56;22.90;40.00
52073;DHT22;38074;51.232;6.826;2022-12-07T20:17:11;22.90;40.00
52073;DHT22;38074;51.232;6.826;2022-12-07T20:24:27;22.90;40.00
52073;DHT22;38074;51.232;6.826;2022-12-07T20:31:43;22.90;40.00
52073;DHT22;38074;51.232;6.826;2022-12-07T20:39:00;22.90;39.90
52073;DHT22;38074;51.232;6.826;2022-12-07T20:46:15;22.90;39.80
52073;DHT22;38074;51.232;6.826;2022-12-07T20:53:31;22.90;39.90
52073;DHT22;38074;51.232;6.826;2022-12-07T21:00:47;23.00;40.00
52073;DHT22;38074;51.232;6.826;2022-12-07T21:08:04;23.10;40.00
52073;DHT22;38074;51.232;6.826;2022-12-07T21:15:19;23.10;39.90
52073;DHT22;38074;51.232;6.826;2022-12-07T21:22:35;23.00;39.90
52073;DHT22;38074;51.232;6.826;2022-12-07T21:29:51;23.00;39.90
52073;DHT22;38074;51.232;6.826;2022-12-07T21:37:06;22.90;39.80
52073;DHT22;38074;51.232;6.826;2022-12-07T21:44:22;23.00;39.80
52073;DHT22;38074;51.232;6.826;2022-12-07T21:51:39;23.00;39.80
52073;DHT22;38074;51.232;6.826;2022-12-07T21:58:59;22.90;39.70
52073;DHT22;38074;51.232;6.826;2022-12-07T22:06:17;22.90;39.70
52073;DHT22;38074;51.232;6.826;2022-12-07T22:13:32;22.90;39.60
52073;DHT22;38074;51.232;6.826;2022-12-07T22:21:07;22.90;39.60
52073;DHT22;38074;51.232;6.826;2022-12-07T22:28:22;22.90;39.70
52073;DHT22;38074;51.232;6.826;2022-12-07T22:35:38;22.90;39.60
52073;DHT22;38074;51.232;6.826;2022-12-07T22:42:53;22.90;39.60
52073;DHT22;38074;51.232;6.826;2022-12-07T22:50:09;22.90;39.50
52073;DHT22;38074;51.232;6.826;2022-12-07T22:57:25;22.90;39.40
52073;DHT22;38074;51.232;6.826;2022-12-07T23:04:40;22.90;39.40
52073;DHT22;38074;51.232;6.826;2022-12-07T23:11:56;22.90;39.40
52073;DHT22;38074;51.232;6.826;2022-12-07T23:19:30;22.90;40.00
52073;DHT22;38074;51.232;6.826;2022-12-07T23:26:46;22.90;39.30
52073;DHT22;38074;51.232;6.826;2022-12-07T23:34:02;22.90;39.30
52073;DHT22;38074;51.232;6.826;2022-12-07T23:41:23;22.90;39.30
52073;DHT22;38074;51.232;6.826;2022-12-07T23:48:39;22.90;39.20
52073;DHT22;38074;51.232;6.826;2022-12-07T23:55:55;22.80;39.20
